高雄終端管制區 - 高雄雷達席

METAR RCKH 271030Z 29004KT 9999 FEW015 BKN035 26/19 Q1017 NOSIG RMK A3004(A)=

站台狀態:Offline
最後更新:2020-11-27 18:30:01